sensor_id;sensor_type;location;lat;lon;timestamp;temperature;humidity
78184;DHT22;67442;44.570;18.610;2023-11-19T00:01:55;21.50;70.80
78184;DHT22;67442;44.570;18.610;2023-11-19T00:04:24;21.50;70.80
78184;DHT22;67442;44.570;18.610;2023-11-19T00:06:54;21.50;70.80
78184;DHT22;67442;44.570;18.610;2023-11-19T00:09:31;21.50;70.80
78184;DHT22;67442;44.570;18.610;2023-11-19T00:12:06;21.50;70.70
78184;DHT22;67442;44.570;18.610;2023-11-19T00:14:33;21.50;70.80
78184;DHT22;67442;44.570;18.610;2023-11-19T00:17:00;21.40;70.70
78184;DHT22;67442;44.570;18.610;2023-11-19T00:19:27;21.50;70.70
78184;DHT22;67442;44.570;18.610;2023-11-19T00:21:58;21.50;70.80
78184;DHT22;67442;44.570;18.610;2023-11-19T00:24:29;21.50;70.70
78184;DHT22;67442;44.570;18.610;2023-11-19T00:26:57;21.40;70.70
78184;DHT22;67442;44.570;18.610;2023-11-19T00:29:24;21.50;70.70
78184;DHT22;67442;44.570;18.610;2023-11-19T00:31:52;21.50;70.70
78184;DHT22;67442;44.570;18.610;2023-11-19T00:34:19;21.50;70.70
78184;DHT22;67442;44.570;18.610;2023-11-19T00:36:51;21.40;70.70
78184;DHT22;67442;44.570;18.610;2023-11-19T00:39:18;21.40;70.70
78184;DHT22;67442;44.570;18.610;2023-11-19T00:41:47;21.40;70.70
78184;DHT22;67442;44.570;18.610;2023-11-19T00:44:15;21.40;70.60
78184;DHT22;67442;44.570;18.610;2023-11-19T00:46:42;21.40;70.60
78184;DHT22;67442;44.570;18.610;2023-11-19T00:49:10;21.40;70.70
78184;DHT22;67442;44.570;18.610;2023-11-19T00:51:38;21.40;70.60
78184;DHT22;67442;44.570;18.610;2023-11-19T00:54:06;21.40;70.70
78184;DHT22;67442;44.570;18.610;2023-11-19T00:56:37;21.40;70.60
78184;DHT22;67442;44.570;18.610;2023-11-19T00:59:04;21.40;70.70
78184;DHT22;67442;44.570;18.610;2023-11-19T01:01:36;21.40;70.60
78184;DHT22;67442;44.570;18.610;2023-11-19T01:04:08;21.40;70.60
78184;DHT22;67442;44.570;18.610;2023-11-19T01:06:35;21.40;70.60
78184;DHT22;67442;44.570;18.610;2023-11-19T01:09:02;21.40;70.60
78184;DHT22;67442;44.570;18.610;2023-11-19T01:11:29;21.40;70.60
78184;DHT22;67442;44.570;18.610;2023-11-19T01:13:56;21.40;70.60
78184;DHT22;67442;44.570;18.610;2023-11-19T01:16:23;21.30;70.60
78184;DHT22;67442;44.570;18.610;2023-11-19T01:18:51;21.30;70.60
78184;DHT22;67442;44.570;18.610;2023-11-19T01:21:18;21.40;70.60
78184;DHT22;67442;44.570;18.610;2023-11-19T01:23:45;21.30;70.60
78184;DHT22;67442;44.570;18.610;2023-11-19T01:26:13;21.30;70.50
78184;DHT22;67442;44.570;18.610;2023-11-19T01:28:40;21.30;70.60
78184;DHT22;67442;44.570;18.610;2023-11-19T01:31:11;21.30;70.50
78184;DHT22;67442;44.570;18.610;2023-11-19T01:33:39;21.30;70.50
78184;DHT22;67442;44.570;18.610;2023-11-19T01:36:09;21.30;70.50
78184;DHT22;67442;44.570;18.610;2023-11-19T01:38:36;21.30;70.50
78184;DHT22;67442;44.570;18.610;2023-11-19T01:41:04;21.30;70.50
78184;DHT22;67442;44.570;18.610;2023-11-19T01:43:38;21.30;70.40
78184;DHT22;67442;44.570;18.610;2023-11-19T01:46:08;21.40;70.60
78184;DHT22;67442;44.570;18.610;2023-11-19T01:48:43;21.30;70.60
78184;DHT22;67442;44.570;18.610;2023-11-19T01:51:14;21.30;70.40
78184;DHT22;67442;44.570;18.610;2023-11-19T01:53:44;21.30;70.50
78184;DHT22;67442;44.570;18.610;2023-11-19T01:56:14;21.30;70.50
78184;DHT22;67442;44.570;18.610;2023-11-19T01:58:43;21.30;70.40
78184;DHT22;67442;44.570;18.610;2023-11-19T02:01:13;21.30;70.50
78184;DHT22;67442;44.570;18.610;2023-11-19T02:03:40;21.30;70.40
78184;DHT22;67442;44.570;18.610;2023-11-19T02:06:07;21.30;70.40
78184;DHT22;67442;44.570;18.610;2023-11-19T02:08:37;21.30;70.40
78184;DHT22;67442;44.570;18.610;2023-11-19T02:11:08;21.30;70.40
78184;DHT22;67442;44.570;18.610;2023-11-19T02:13:38;21.30;70.40
78184;DHT22;67442;44.570;18.610;2023-11-19T02:16:10;21.30;70.40
78184;DHT22;67442;44.570;18.610;2023-11-19T02:18:37;21.30;70.40
78184;DHT22;67442;44.570;18.610;2023-11-19T02:21:05;21.30;70.40
78184;DHT22;67442;44.570;18.610;2023-11-19T02:23:33;21.30;70.40
78184;DHT22;67442;44.570;18.610;2023-11-19T02:26:14;21.20;70.30
78184;DHT22;67442;44.570;18.610;2023-11-19T02:28:51;21.20;70.30
78184;DHT22;67442;44.570;18.610;2023-11-19T02:31:19;21.20;70.50
78184;DHT22;67442;44.570;18.610;2023-11-19T02:33:46;21.20;70.40
78184;DHT22;67442;44.570;18.610;2023-11-19T02:36:19;21.20;70.30
78184;DHT22;67442;44.570;18.610;2023-11-19T02:38:50;21.20;70.30
78184;DHT22;67442;44.570;18.610;2023-11-19T02:41:18;21.20;70.30
78184;DHT22;67442;44.570;18.610;2023-11-19T02:43:45;21.20;70.30
78184;DHT22;67442;44.570;18.610;2023-11-19T02:46:15;21.20;70.40
78184;DHT22;67442;44.570;18.610;2023-11-19T02:48:44;21.20;70.30
78184;DHT22;67442;44.570;18.610;2023-11-19T02:51:12;21.20;71.10
78184;DHT22;67442;44.570;18.610;2023-11-19T02:53:40;21.20;70.30
78184;DHT22;67442;44.570;18.610;2023-11-19T02:56:08;21.20;70.30
78184;DHT22;67442;44.570;18.610;2023-11-19T02:58:54;21.20;70.30
78184;DHT22;67442;44.570;18.610;2023-11-19T03:01:22;21.20;70.30
78184;DHT22;67442;44.570;18.610;2023-11-19T03:03:59;21.20;70.30
78184;DHT22;67442;44.570;18.610;2023-11-19T03:06:31;21.20;70.30
78184;DHT22;67442;44.570;18.610;2023-11-19T03:09:02;21.20;70.30
78184;DHT22;67442;44.570;18.610;2023-11-19T03:11:34;21.20;70.30
78184;DHT22;67442;44.570;18.610;2023-11-19T03:14:02;21.20;70.30
78184;DHT22;67442;44.570;18.610;2023-11-19T03:16:33;21.20;70.30
78184;DHT22;67442;44.570;18.610;2023-11-19T03:19:00;21.20;70.30
78184;DHT22;67442;44.570;18.610;2023-11-19T03:21:28;21.20;70.30
78184;DHT22;67442;44.570;18.610;2023-11-19T03:23:55;21.20;71.10
78184;DHT22;67442;44.570;18.610;2023-11-19T03:26:22;21.10;70.20
78184;DHT22;67442;44.570;18.610;2023-11-19T03:28:50;21.10;70.30
78184;DHT22;67442;44.570;18.610;2023-11-19T03:31:17;21.10;70.20
78184;DHT22;67442;44.570;18.610;2023-11-19T03:33:45;21.10;70.20
78184;DHT22;67442;44.570;18.610;2023-11-19T03:36:13;21.10;70.20
78184;DHT22;67442;44.570;18.610;2023-11-19T03:38:39;21.10;70.20
78184;DHT22;67442;44.570;18.610;2023-11-19T03:41:12;21.20;70.30
78184;DHT22;67442;44.570;18.610;2023-11-19T03:43:46;21.10;70.20
78184;DHT22;67442;44.570;18.610;2023-11-19T03:46:20;21.10;70.20
78184;DHT22;67442;44.570;18.610;2023-11-19T03:48:51;21.10;70.20
78184;DHT22;67442;44.570;18.610;2023-11-19T03:51:19;21.10;70.20
78184;DHT22;67442;44.570;18.610;2023-11-19T03:53:46;21.10;70.20
78184;DHT22;67442;44.570;18.610;2023-11-19T03:56:12;21.10;70.20
78184;DHT22;67442;44.570;18.610;2023-11-19T03:58:43;21.10;70.20
78184;DHT22;67442;44.570;18.610;2023-11-19T04:01:13;21.10;70.20
78184;DHT22;67442;44.570;18.610;2023-11-19T04:03:44;21.10;70.20
78184;DHT22;67442;44.570;18.610;2023-11-19T04:06:15;21.10;70.20
78184;DHT22;67442;44.570;18.610;2023-11-19T04:08:41;21.10;70.20
78184;DHT22;67442;44.570;18.610;2023-11-19T04:11:09;21.10;70.20
78184;DHT22;67442;44.570;18.610;2023-11-19T04:13:36;21.10;70.20
78184;DHT22;67442;44.570;18.610;2023-11-19T04:16:04;21.10;70.20
78184;DHT22;67442;44.570;18.610;2023-11-19T04:18:32;21.10;70.20
78184;DHT22;67442;44.570;18.610;2023-11-19T04:21:00;21.00;70.10
78184;DHT22;67442;44.570;18.610;2023-11-19T04:23:27;21.10;70.20
78184;DHT22;67442;44.570;18.610;2023-11-19T04:25:54;21.10;70.20
78184;DHT22;67442;44.570;18.610;2023-11-19T04:28:23;21.10;70.20
78184;DHT22;67442;44.570;18.610;2023-11-19T04:30:53;21.00;70.10
78184;DHT22;67442;44.570;18.610;2023-11-19T04:33:25;21.00;70.10
78184;DHT22;67442;44.570;18.610;2023-11-19T04:35:52;21.00;70.10
78184;DHT22;67442;44.570;18.610;2023-11-19T04:38:20;21.00;70.10
78184;DHT22;67442;44.570;18.610;2023-11-19T04:40:47;21.00;70.10
78184;DHT22;67442;44.570;18.610;2023-11-19T04:43:14;21.00;70.10
78184;DHT22;67442;44.570;18.610;2023-11-19T04:45:42;21.00;70.00
78184;DHT22;67442;44.570;18.610;2023-11-19T04:48:13;21.00;70.10
78184;DHT22;67442;44.570;18.610;2023-11-19T04:50:40;21.00;70.00
78184;DHT22;67442;44.570;18.610;2023-11-19T04:53:12;21.00;70.00
78184;DHT22;67442;44.570;18.610;2023-11-19T04:55:40;21.00;70.00
78184;DHT22;67442;44.570;18.610;2023-11-19T04:58:08;21.00;70.00
78184;DHT22;67442;44.570;18.610;2023-11-19T05:00:35;21.00;70.00
78184;DHT22;67442;44.570;18.610;2023-11-19T05:03:02;21.00;70.00
78184;DHT22;67442;44.570;18.610;2023-11-19T05:05:30;21.00;70.00
78184;DHT22;67442;44.570;18.610;2023-11-19T05:08:01;21.00;70.00
78184;DHT22;67442;44.570;18.610;2023-11-19T05:10:29;21.00;70.00
78184;DHT22;67442;44.570;18.610;2023-11-19T05:12:59;21.00;70.00
78184;DHT22;67442;44.570;18.610;2023-11-19T05:15:27;21.00;70.00
78184;DHT22;67442;44.570;18.610;2023-11-19T05:17:54;21.00;70.00
78184;DHT22;67442;44.570;18.610;2023-11-19T05:20:25;21.00;70.00
78184;DHT22;67442;44.570;18.610;2023-11-19T05:22:56;21.00;70.00
78184;DHT22;67442;44.570;18.610;2023-11-19T05:25:29;20.90;70.00
78184;DHT22;67442;44.570;18.610;2023-11-19T05:27:56;21.00;70.00
78184;DHT22;67442;44.570;18.610;2023-11-19T05:30:24;20.90;70.00
78184;DHT22;67442;44.570;18.610;2023-11-19T05:32:51;20.90;70.00
78184;DHT22;67442;44.570;18.610;2023-11-19T05:35:23;20.90;69.90
78184;DHT22;67442;44.570;18.610;2023-11-19T05:37:50;21.00;70.00
78184;DHT22;67442;44.570;18.610;2023-11-19T05:40:21;20.90;69.90
78184;DHT22;67442;44.570;18.610;2023-11-19T05:42:52;20.90;69.90
78184;DHT22;67442;44.570;18.610;2023-11-19T05:45:19;20.90;69.90
78184;DHT22;67442;44.570;18.610;2023-11-19T05:47:51;20.90;69.90
78184;DHT22;67442;44.570;18.610;2023-11-19T05:50:21;20.90;70.00
78184;DHT22;67442;44.570;18.610;2023-11-19T05:52:49;20.90;69.90
78184;DHT22;67442;44.570;18.610;2023-11-19T05:55:16;20.90;69.90
78184;DHT22;67442;44.570;18.610;2023-11-19T05:57:43;20.90;69.90
78184;DHT22;67442;44.570;18.610;2023-11-19T06:00:11;20.90;69.90
78184;DHT22;67442;44.570;18.610;2023-11-19T06:02:38;20.90;69.90
78184;DHT22;67442;44.570;18.610;2023-11-19T06:05:06;20.90;69.90
78184;DHT22;67442;44.570;18.610;2023-11-19T06:07:35;20.90;70.00
78184;DHT22;67442;44.570;18.610;2023-11-19T06:10:04;20.90;69.90
78184;DHT22;67442;44.570;18.610;2023-11-19T06:12:34;20.90;69.90
78184;DHT22;67442;44.570;18.610;2023-11-19T06:15:05;20.90;69.90
78184;DHT22;67442;44.570;18.610;2023-11-19T06:17:32;20.90;69.90
78184;DHT22;67442;44.570;18.610;2023-11-19T06:20:05;20.90;69.90
78184;DHT22;67442;44.570;18.610;2023-11-19T06:22:33;20.90;69.90
78184;DHT22;67442;44.570;18.610;2023-11-19T06:25:01;20.90;70.00
78184;DHT22;67442;44.570;18.610;2023-11-19T06:27:29;20.90;69.90
78184;DHT22;67442;44.570;18.610;2023-11-19T06:30:01;20.80;69.80
78184;DHT22;67442;44.570;18.610;2023-11-19T06:32:29;20.90;69.90
78184;DHT22;67442;44.570;18.610;2023-11-19T06:34:56;20.90;69.90
78184;DHT22;67442;44.570;18.610;2023-11-19T06:37:23;20.90;69.80
78184;DHT22;67442;44.570;18.610;2023-11-19T06:39:51;20.80;69.80
78184;DHT22;67442;44.570;18.610;2023-11-19T06:42:18;20.80;69.80
78184;DHT22;67442;44.570;18.610;2023-11-19T06:44:45;20.80;69.80
78184;DHT22;67442;44.570;18.610;2023-11-19T06:47:12;20.80;69.80
78184;DHT22;67442;44.570;18.610;2023-11-19T06:49:46;20.80;69.80
78184;DHT22;67442;44.570;18.610;2023-11-19T06:52:17;20.80;69.80
78184;DHT22;67442;44.570;18.610;2023-11-19T06:54:44;20.80;69.80
78184;DHT22;67442;44.570;18.610;2023-11-19T06:57:14;20.80;69.80
78184;DHT22;67442;44.570;18.610;2023-11-19T06:59:42;20.80;69.80
78184;DHT22;67442;44.570;18.610;2023-11-19T07:02:13;20.80;69.80
78184;DHT22;67442;44.570;18.610;2023-11-19T07:04:40;20.80;69.80
78184;DHT22;67442;44.570;18.610;2023-11-19T07:07:08;20.80;69.80
78184;DHT22;67442;44.570;18.610;2023-11-19T07:09:36;20.80;69.80
78184;DHT22;67442;44.570;18.610;2023-11-19T07:12:06;20.80;69.70
78184;DHT22;67442;44.570;18.610;2023-11-19T07:14:32;20.80;69.80
78184;DHT22;67442;44.570;18.610;2023-11-19T07:16:59;20.80;69.70
78184;DHT22;67442;44.570;18.610;2023-11-19T07:19:27;20.80;69.80
78184;DHT22;67442;44.570;18.610;2023-11-19T07:21:55;20.80;69.80
78184;DHT22;67442;44.570;18.610;2023-11-19T07:24:22;20.80;69.70
78184;DHT22;67442;44.570;18.610;2023-11-19T07:26:51;20.80;69.90
78184;DHT22;67442;44.570;18.610;2023-11-19T07:29:18;20.80;69.70
78184;DHT22;67442;44.570;18.610;2023-11-19T07:31:45;20.80;69.70
78184;DHT22;67442;44.570;18.610;2023-11-19T07:34:14;20.80;69.70
78184;DHT22;67442;44.570;18.610;2023-11-19T07:36:41;20.80;69.70
78184;DHT22;67442;44.570;18.610;2023-11-19T07:39:09;20.80;69.70
78184;DHT22;67442;44.570;18.610;2023-11-19T07:41:36;20.80;69.80
78184;DHT22;67442;44.570;18.610;2023-11-19T07:44:03;20.80;69.70
78184;DHT22;67442;44.570;18.610;2023-11-19T07:46:35;20.80;69.70
78184;DHT22;67442;44.570;18.610;2023-11-19T07:49:03;20.80;70.50
78184;DHT22;67442;44.570;18.610;2023-11-19T07:51:35;20.80;69.70
78184;DHT22;67442;44.570;18.610;2023-11-19T07:54:03;20.80;69.70
78184;DHT22;67442;44.570;18.610;2023-11-19T07:56:34;20.80;69.70
78184;DHT22;67442;44.570;18.610;2023-11-19T07:59:21;20.80;69.70
78184;DHT22;67442;44.570;18.610;2023-11-19T08:01:52;20.80;69.70
78184;DHT22;67442;44.570;18.610;2023-11-19T08:04:23;20.70;69.70
78184;DHT22;67442;44.570;18.610;2023-11-19T08:06:54;20.70;69.70
78184;DHT22;67442;44.570;18.610;2023-11-19T08:09:21;20.80;69.70
78184;DHT22;67442;44.570;18.610;2023-11-19T08:11:49;20.80;69.70
78184;DHT22;67442;44.570;18.610;2023-11-19T08:14:17;20.70;70.50
78184;DHT22;67442;44.570;18.610;2023-11-19T08:16:45;20.70;69.70
78184;DHT22;67442;44.570;18.610;2023-11-19T08:19:13;20.80;69.70
78184;DHT22;67442;44.570;18.610;2023-11-19T08:21:40;20.70;69.70
78184;DHT22;67442;44.570;18.610;2023-11-19T08:24:08;20.70;69.60
78184;DHT22;67442;44.570;18.610;2023-11-19T08:26:35;20.70;69.70
78184;DHT22;67442;44.570;18.610;2023-11-19T08:29:02;20.70;69.60
78184;DHT22;67442;44.570;18.610;2023-11-19T08:31:34;20.80;69.70
78184;DHT22;67442;44.570;18.610;2023-11-19T08:34:05;20.70;69.70
78184;DHT22;67442;44.570;18.610;2023-11-19T08:36:35;20.80;69.70
78184;DHT22;67442;44.570;18.610;2023-11-19T08:39:06;20.70;69.60
78184;DHT22;67442;44.570;18.610;2023-11-19T08:41:35;20.70;69.60
78184;DHT22;67442;44.570;18.610;2023-11-19T08:44:07;20.70;69.70
78184;DHT22;67442;44.570;18.610;2023-11-19T08:46:38;20.70;69.70
78184;DHT22;67442;44.570;18.610;2023-11-19T08:49:09;20.70;69.60
78184;DHT22;67442;44.570;18.610;2023-11-19T08:51:37;20.70;69.60
78184;DHT22;67442;44.570;18.610;2023-11-19T08:54:05;20.70;69.70
78184;DHT22;67442;44.570;18.610;2023-11-19T08:56:32;20.70;69.60
78184;DHT22;67442;44.570;18.610;2023-11-19T08:59:01;20.70;69.70
78184;DHT22;67442;44.570;18.610;2023-11-19T09:01:28;20.70;69.70
78184;DHT22;67442;44.570;18.610;2023-11-19T09:03:59;20.70;69.60
78184;DHT22;67442;44.570;18.610;2023-11-19T09:06:30;20.70;69.70
78184;DHT22;67442;44.570;18.610;2023-11-19T09:09:00;20.70;69.70
78184;DHT22;67442;44.570;18.610;2023-11-19T09:11:29;20.70;69.60
78184;DHT22;67442;44.570;18.610;2023-11-19T09:13:57;20.70;69.70
78184;DHT22;67442;44.570;18.610;2023-11-19T09:16:24;20.70;69.60
78184;DHT22;67442;44.570;18.610;2023-11-19T09:18:52;20.70;69.70
78184;DHT22;67442;44.570;18.610;2023-11-19T09:21:19;20.70;69.70
78184;DHT22;67442;44.570;18.610;2023-11-19T09:23:46;20.70;69.60
78184;DHT22;67442;44.570;18.610;2023-11-19T09:26:15;20.70;69.60
78184;DHT22;67442;44.570;18.610;2023-11-19T09:28:42;20.70;69.60
78184;DHT22;67442;44.570;18.610;2023-11-19T09:31:19;20.70;69.70
78184;DHT22;67442;44.570;18.610;2023-11-19T09:33:50;20.70;69.60
78184;DHT22;67442;44.570;18.610;2023-11-19T09:36:22;20.70;69.60
78184;DHT22;67442;44.570;18.610;2023-11-19T09:38:49;20.70;69.60
78184;DHT22;67442;44.570;18.610;2023-11-19T09:41:17;20.70;69.60
78184;DHT22;67442;44.570;18.610;2023-11-19T09:43:48;20.70;69.60
78184;DHT22;67442;44.570;18.610;2023-11-19T09:46:20;20.70;69.60
78184;DHT22;67442;44.570;18.610;2023-11-19T09:48:47;20.70;69.70
78184;DHT22;67442;44.570;18.610;2023-11-19T09:51:22;20.70;69.60
78184;DHT22;67442;44.570;18.610;2023-11-19T09:53:49;20.70;69.60
78184;DHT22;67442;44.570;18.610;2023-11-19T09:56:16;20.70;69.60
78184;DHT22;67442;44.570;18.610;2023-11-19T09:58:44;20.70;69.60
78184;DHT22;67442;44.570;18.610;2023-11-19T10:01:11;20.70;69.60
78184;DHT22;67442;44.570;18.610;2023-11-19T10:03:39;20.70;69.60
78184;DHT22;67442;44.570;18.610;2023-11-19T10:06:10;20.70;69.60
78184;DHT22;67442;44.570;18.610;2023-11-19T10:08:38;20.70;69.60
78184;DHT22;67442;44.570;18.610;2023-11-19T10:11:24;20.70;69.60
78184;DHT22;67442;44.570;18.610;2023-11-19T10:13:53;20.70;69.60
78184;DHT22;67442;44.570;18.610;2023-11-19T10:16:20;20.70;69.60
78184;DHT22;67442;44.570;18.610;2023-11-19T10:18:48;20.70;69.60
78184;DHT22;67442;44.570;18.610;2023-11-19T10:21:19;20.70;69.70
78184;DHT22;67442;44.570;18.610;2023-11-19T10:23:53;20.70;69.70
78184;DHT22;67442;44.570;18.610;2023-11-19T10:26:20;20.70;69.70
78184;DHT22;67442;44.570;18.610;2023-11-19T10:28:48;20.70;69.60
78184;DHT22;67442;44.570;18.610;2023-11-19T10:31:19;20.70;69.70
78184;DHT22;67442;44.570;18.610;2023-11-19T10:33:52;20.70;69.60
78184;DHT22;67442;44.570;18.610;2023-11-19T10:36:19;20.70;69.60
78184;DHT22;67442;44.570;18.610;2023-11-19T10:38:53;20.70;69.70
78184;DHT22;67442;44.570;18.610;2023-11-19T10:41:29;20.70;69.60
78184;DHT22;67442;44.570;18.610;2023-11-19T10:43:58;20.70;69.70
78184;DHT22;67442;44.570;18.610;2023-11-19T10:46:36;20.70;69.60
78184;DHT22;67442;44.570;18.610;2023-11-19T10:49:05;20.70;69.70
78184;DHT22;67442;44.570;18.610;2023-11-19T10:51:33;20.60;69.60
78184;DHT22;67442;44.570;18.610;2023-11-19T10:54:05;20.70;69.60
78184;DHT22;67442;44.570;18.610;2023-11-19T10:56:33;20.60;69.60
78184;DHT22;67442;44.570;18.610;2023-11-19T10:59:00;20.70;69.70
78184;DHT22;67442;44.570;18.610;2023-11-19T11:01:43;20.60;69.60
78184;DHT22;67442;44.570;18.610;2023-11-19T11:04:14;20.70;69.70
78184;DHT22;67442;44.570;18.610;2023-11-19T11:06:45;20.70;69.70
78184;DHT22;67442;44.570;18.610;2023-11-19T11:09:13;20.60;69.70
78184;DHT22;67442;44.570;18.610;2023-11-19T11:11:43;20.70;69.70
78184;DHT22;67442;44.570;18.610;2023-11-19T11:14:18;20.70;69.70
78184;DHT22;67442;44.570;18.610;2023-11-19T11:16:52;20.70;69.80
78184;DHT22;67442;44.570;18.610;2023-11-19T11:19:25;20.70;69.70
78184;DHT22;67442;44.570;18.610;2023-11-19T11:21:55;20.70;69.70
78184;DHT22;67442;44.570;18.610;2023-11-19T11:36:06;20.70;69.70
78184;DHT22;67442;44.570;18.610;2023-11-19T11:38:48;20.60;69.70
78184;DHT22;67442;44.570;18.610;2023-11-19T11:41:22;20.70;69.80
78184;DHT22;67442;44.570;18.610;2023-11-19T11:43:54;20.70;69.80
78184;DHT22;67442;44.570;18.610;2023-11-19T11:49:04;20.70;69.80
78184;DHT22;67442;44.570;18.610;2023-11-19T11:52:08;20.70;69.80
78184;DHT22;67442;44.570;18.610;2023-11-19T11:54:41;20.70;69.80
78184;DHT22;67442;44.570;18.610;2023-11-19T11:57:13;20.70;69.80
78184;DHT22;67442;44.570;18.610;2023-11-19T11:59:45;20.70;69.80
78184;DHT22;67442;44.570;18.610;2023-11-19T12:02:16;20.70;69.80
78184;DHT22;67442;44.570;18.610;2023-11-19T12:04:49;20.70;69.80
78184;DHT22;67442;44.570;18.610;2023-11-19T12:07:21;20.70;69.90
78184;DHT22;67442;44.570;18.610;2023-11-19T12:10:08;20.70;69.90
78184;DHT22;67442;44.570;18.610;2023-11-19T12:12:35;20.70;69.80
78184;DHT22;67442;44.570;18.610;2023-11-19T12:15:05;20.80;69.90
78184;DHT22;67442;44.570;18.610;2023-11-19T13:13:08;20.20;71.20
78184;DHT22;67442;44.570;18.610;2023-11-19T13:15:46;20.50;72.10
78184;DHT22;67442;44.570;18.610;2023-11-19T13:18:17;20.50;71.80
78184;DHT22;67442;44.570;18.610;2023-11-19T13:20:44;20.60;71.70
78184;DHT22;67442;44.570;18.610;2023-11-19T13:23:14;20.60;71.50
78184;DHT22;67442;44.570;18.610;2023-11-19T13:25:42;20.60;71.20
78184;DHT22;67442;44.570;18.610;2023-11-19T13:28:10;20.70;71.00
78184;DHT22;67442;44.570;18.610;2023-11-19T13:30:37;20.70;70.80
78184;DHT22;67442;44.570;18.610;2023-11-19T13:33:05;20.70;70.60
78184;DHT22;67442;44.570;18.610;2023-11-19T13:35:36;20.80;70.50
78184;DHT22;67442;44.570;18.610;2023-11-19T13:38:09;20.80;70.40
78184;DHT22;67442;44.570;18.610;2023-11-19T13:40:36;20.80;70.20
78184;DHT22;67442;44.570;18.610;2023-11-19T13:43:08;20.80;70.10
78184;DHT22;67442;44.570;18.610;2023-11-19T13:45:39;20.80;70.00
78184;DHT22;67442;44.570;18.610;2023-11-19T13:48:06;20.80;69.90
78184;DHT22;67442;44.570;18.610;2023-11-19T13:50:34;20.80;69.80
78184;DHT22;67442;44.570;18.610;2023-11-19T13:53:00;20.90;69.80
78184;DHT22;67442;44.570;18.610;2023-11-19T13:55:27;20.90;69.80
78184;DHT22;67442;44.570;18.610;2023-11-19T13:57:58;20.90;69.70
78184;DHT22;67442;44.570;18.610;2023-11-19T14:00:29;20.90;69.70
78184;DHT22;67442;44.570;18.610;2023-11-19T14:02:56;20.90;69.60
78184;DHT22;67442;44.570;18.610;2023-11-19T14:05:23;20.90;69.50
78184;DHT22;67442;44.570;18.610;2023-11-19T14:07:50;20.90;69.40
78184;DHT22;67442;44.570;18.610;2023-11-19T14:10:22;20.90;69.40
78184;DHT22;67442;44.570;18.610;2023-11-19T14:12:49;20.90;69.30
78184;DHT22;67442;44.570;18.610;2023-11-19T14:15:17;20.90;69.20
78184;DHT22;67442;44.570;18.610;2023-11-19T14:17:44;20.90;69.20
78184;DHT22;67442;44.570;18.610;2023-11-19T14:20:12;20.90;69.20
78184;DHT22;67442;44.570;18.610;2023-11-19T14:22:44;21.00;69.20
78184;DHT22;67442;44.570;18.610;2023-11-19T14:25:11;20.90;69.20
78184;DHT22;67442;44.570;18.610;2023-11-19T14:27:39;21.00;69.20
78184;DHT22;67442;44.570;18.610;2023-11-19T14:30:06;21.00;69.20
78184;DHT22;67442;44.570;18.610;2023-11-19T14:32:39;21.00;69.20
78184;DHT22;67442;44.570;18.610;2023-11-19T14:35:12;21.00;69.20
78184;DHT22;67442;44.570;18.610;2023-11-19T14:37:43;21.00;69.20
78184;DHT22;67442;44.570;18.610;2023-11-19T14:40:11;21.00;69.30
78184;DHT22;67442;44.570;18.610;2023-11-19T14:42:39;21.00;69.20
78184;DHT22;67442;44.570;18.610;2023-11-19T14:45:10;21.00;69.20
78184;DHT22;67442;44.570;18.610;2023-11-19T14:47:38;21.00;69.10
78184;DHT22;67442;44.570;18.610;2023-11-19T14:50:07;21.00;69.20
78184;DHT22;67442;44.570;18.610;2023-11-19T14:52:36;21.00;69.20
78184;DHT22;67442;44.570;18.610;2023-11-19T14:55:03;21.00;69.50
78184;DHT22;67442;44.570;18.610;2023-11-19T14:57:30;21.00;69.50
78184;DHT22;67442;44.570;18.610;2023-11-19T14:59:58;21.00;69.50
78184;DHT22;67442;44.570;18.610;2023-11-19T15:02:27;21.00;69.50
78184;DHT22;67442;44.570;18.610;2023-11-19T15:04:58;21.00;69.30
78184;DHT22;67442;44.570;18.610;2023-11-19T15:07:26;21.00;69.10
78184;DHT22;67442;44.570;18.610;2023-11-19T15:09:53;21.00;69.00
78184;DHT22;67442;44.570;18.610;2023-11-19T15:12:20;21.00;68.60
78184;DHT22;67442;44.570;18.610;2023-11-19T15:14:49;21.00;68.40
78184;DHT22;67442;44.570;18.610;2023-11-19T15:17:20;20.90;68.00
78184;DHT22;67442;44.570;18.610;2023-11-19T15:19:48;20.90;68.00
78184;DHT22;67442;44.570;18.610;2023-11-19T15:22:17;20.90;67.70
78184;DHT22;67442;44.570;18.610;2023-11-19T15:24:44;20.90;67.50
78184;DHT22;67442;44.570;18.610;2023-11-19T15:27:12;20.90;67.30
78184;DHT22;67442;44.570;18.610;2023-11-19T15:29:39;20.90;66.90
78184;DHT22;67442;44.570;18.610;2023-11-19T15:32:07;20.90;66.80
78184;DHT22;67442;44.570;18.610;2023-11-19T15:34:34;20.90;66.70
78184;DHT22;67442;44.570;18.610;2023-11-19T15:37:04;20.90;66.60
78184;DHT22;67442;44.570;18.610;2023-11-19T15:39:32;20.90;66.70
78184;DHT22;67442;44.570;18.610;2023-11-19T15:42:05;20.90;66.90
78184;DHT22;67442;44.570;18.610;2023-11-19T15:44:32;20.90;67.00
78184;DHT22;67442;44.570;18.610;2023-11-19T15:47:00;20.90;67.20
78184;DHT22;67442;44.570;18.610;2023-11-19T15:49:29;20.90;67.40
78184;DHT22;67442;44.570;18.610;2023-11-19T15:51:57;20.90;67.50
78184;DHT22;67442;44.570;18.610;2023-11-19T15:54:28;20.90;67.70
78184;DHT22;67442;44.570;18.610;2023-11-19T15:56:56;21.00;67.80
78184;DHT22;67442;44.570;18.610;2023-11-19T15:59:27;20.90;67.90
78184;DHT22;67442;44.570;18.610;2023-11-19T16:02:00;21.00;68.00
78184;DHT22;67442;44.570;18.610;2023-11-19T16:04:27;21.00;68.10
78184;DHT22;67442;44.570;18.610;2023-11-19T16:06:55;21.00;68.20
78184;DHT22;67442;44.570;18.610;2023-11-19T16:09:22;21.00;68.30
78184;DHT22;67442;44.570;18.610;2023-11-19T16:11:49;21.00;68.40
78184;DHT22;67442;44.570;18.610;2023-11-19T16:14:16;21.00;68.40
78184;DHT22;67442;44.570;18.610;2023-11-19T16:16:43;21.00;68.40
78184;DHT22;67442;44.570;18.610;2023-11-19T16:19:11;21.00;68.50
78184;DHT22;67442;44.570;18.610;2023-11-19T16:21:42;21.00;68.50
78184;DHT22;67442;44.570;18.610;2023-11-19T16:24:13;21.00;68.70
78184;DHT22;67442;44.570;18.610;2023-11-19T16:26:40;21.00;68.80
78184;DHT22;67442;44.570;18.610;2023-11-19T16:29:07;21.00;68.80
78184;DHT22;67442;44.570;18.610;2023-11-19T16:31:35;21.00;69.00
78184;DHT22;67442;44.570;18.610;2023-11-19T16:34:02;21.00;69.10
78184;DHT22;67442;44.570;18.610;2023-11-19T16:36:32;21.10;69.20
78184;DHT22;67442;44.570;18.610;2023-11-19T16:38:59;21.10;69.30